Time;durP1;ratioP1;P1;durP2;ratioP2;P2;SDS_P1;SDS_P2;PMS_P1;PMS_P2;Temp;Humidity;BMP_temperature;BMP_pressure;BME280_temperature;BME280_humidity;BME280_pressure;Samples;Min_cycle;Max_cycle;Signal;HPM_P1;HPM_P2
2023/06/03 00:00:26;;;;;;;10.65;5.25;;;;;;;16.34;58.10;96208.16;5048389;28;20048;-72
2023/06/03 00:02:53;;;;;;;11.23;5.35;;;;;;;16.31;57.90;96206.09;5048798;28;20053;-72
2023/06/03 00:05:21;;;;;;;10.63;5.57;;;;;;;16.29;57.81;96215.88;5047884;28;20095;-72
2023/06/03 00:07:48;;;;;;;8.43;5.10;;;;;;;16.25;58.01;96207.56;5048945;28;20064;-72
2023/06/03 00:10:15;;;;;;;9.45;5.55;;;;;;;16.15;57.99;96206.16;5051367;28;20503;-72
2023/06/03 00:12:42;;;;;;;11.68;4.90;;;;;;;16.15;58.01;96206.16;5052209;28;20045;-72
2023/06/03 00:15:09;;;;;;;10.15;5.25;;;;;;;16.12;58.23;96212.34;5050762;28;20057;-72
2023/06/03 00:17:36;;;;;;;7.88;4.82;;;;;;;16.11;57.58;96209.97;5053203;28;20049;-72
2023/06/03 00:20:06;;;;;;;8.25;4.97;;;;;;;16.05;57.49;96211.41;5050483;28;20052;-72
2023/06/03 00:22:34;;;;;;;8.52;5.15;;;;;;;15.98;58.42;96209.28;5051743;28;20044;-73
2023/06/03 00:25:01;;;;;;;11.10;5.47;;;;;;;16.03;59.11;96210.97;5051656;28;20130;-72
2023/06/03 00:27:27;;;;;;;11.68;5.28;;;;;;;15.96;58.57;96213.53;5049328;28;20480;-72
2023/06/03 00:29:54;;;;;;;8.05;5.45;;;;;;;15.94;58.77;96215.84;5051327;28;20045;-72
2023/06/03 00:32:20;;;;;;;9.50;5.10;;;;;;;15.91;58.19;96222.81;5050281;28;20043;-72
2023/06/03 00:34:47;;;;;;;7.78;4.82;;;;;;;15.83;58.32;96219.13;5050872;28;20052;-72
2023/06/03 00:37:13;;;;;;;8.82;4.60;;;;;;;15.81;57.91;96223.34;5051611;28;20056;-73
2023/06/03 00:39:41;;;;;;;9.82;4.68;;;;;;;15.76;58.96;96218.94;5051292;28;20036;-72
2023/06/03 00:42:08;;;;;;;8.68;4.88;;;;;;;15.75;58.75;96231.06;5050991;28;20044;-72
2023/06/03 00:44:34;;;;;;;9.80;5.70;;;;;;;15.72;58.71;96234.53;5050913;28;20408;-72
2023/06/03 00:47:02;;;;;;;7.95;4.80;;;;;;;15.70;59.22;96230.53;5050612;28;20377;-72
2023/06/03 00:49:28;;;;;;;8.38;4.60;;;;;;;15.66;58.55;96230.47;5051538;28;20131;-72
2023/06/03 00:51:56;;;;;;;8.50;4.88;;;;;;;15.62;58.82;96219.34;5051237;28;20496;-72
2023/06/03 00:54:23;;;;;;;9.75;4.97;;;;;;;15.58;59.08;96223.94;5050626;28;20060;-72
2023/06/03 00:56:51;;;;;;;9.02;4.97;;;;;;;15.53;59.39;96221.47;5047044;28;20041;-72
2023/06/03 00:59:18;;;;;;;7.32;4.50;;;;;;;15.48;58.70;96220.94;5049438;28;20040;-72
2023/06/03 01:01:45;;;;;;;11.15;4.82;;;;;;;15.45;58.82;96221.63;5051191;28;20049;-72
2023/06/03 01:04:16;;;;;;;6.72;3.88;;;;;;;15.40;58.61;96218.03;5050853;28;20522;-72
2023/06/03 01:06:52;;;;;;;7.65;4.70;;;;;;;15.36;58.93;96219.88;5050977;28;20114;-72
2023/06/03 01:09:30;;;;;;;8.10;4.75;;;;;;;15.31;58.98;96217.38;5049942;28;20127;-72
2023/06/03 01:12:07;;;;;;;7.75;4.10;;;;;;;15.27;59.08;96212.94;5050414;28;20068;-73
2023/06/03 01:14:40;;;;;;;10.23;4.65;;;;;;;15.23;60.04;96210.09;5050561;28;20040;-72
2023/06/03 01:17:09;;;;;;;9.50;4.70;;;;;;;15.20;59.77;96208.06;5050748;28;20059;-73
2023/06/03 01:19:47;;;;;;;8.95;4.78;;;;;;;15.18;59.79;96218.56;5050109;28;20059;-72
2023/06/03 01:22:14;;;;;;;14.23;4.70;;;;;;;15.15;58.61;96213.81;5049728;28;20407;-72
2023/06/03 01:24:43;;;;;;;8.20;4.40;;;;;;;15.13;58.83;96216.88;5050462;28;20043;-72
2023/06/03 01:27:10;;;;;;;11.73;5.13;;;;;;;15.12;58.67;96209.00;5050046;28;20052;-73
2023/06/03 01:29:36;;;;;;;9.10;5.00;;;;;;;15.07;59.14;96217.50;5050741;28;20724;-72
2023/06/03 01:32:04;;;;;;;8.85;4.40;;;;;;;15.03;58.93;96219.34;5049936;28;20495;-73
2023/06/03 01:34:32;;;;;;;7.78;4.47;;;;;;;14.99;59.49;96210.25;5049502;28;20183;-72
2023/06/03 01:36:59;;;;;;;8.95;5.03;;;;;;;14.96;60.21;96205.44;5048617;28;20072;-73
2023/06/03 01:39:27;;;;;;;11.70;5.05;;;;;;;14.92;59.79;96210.03;5047853;28;20044;-73
2023/06/03 01:41:55;;;;;;;28.30;6.68;;;;;;;14.87;59.96;96220.09;5046746;28;20044;-72
2023/06/03 01:44:21;;;;;;;9.48;4.63;;;;;;;14.84;60.09;96209.84;5049184;28;20057;-72
2023/06/03 01:46:48;;;;;;;6.53;4.28;;;;;;;14.79;60.58;96212.03;5050111;28;20542;-72
2023/06/03 01:49:15;;;;;;;12.10;5.53;;;;;;;14.73;59.83;96208.75;5049602;28;20041;-72
2023/06/03 01:51:41;;;;;;;12.38;5.43;;;;;;;14.72;60.30;96206.31;5048880;28;20041;-72
2023/06/03 01:54:08;;;;;;;16.92;5.95;;;;;;;14.70;60.50;96203.94;5050357;28;20151;-72
2023/06/03 01:56:34;;;;;;;22.77;5.88;;;;;;;14.65;60.44;96201.44;5049647;28;20052;-72
2023/06/03 01:59:02;;;;;;;41.10;6.93;;;;;;;14.55;60.40;96204.66;5048743;28;20122;-72
2023/06/03 02:01:29;;;;;;;36.92;6.68;;;;;;;14.54;60.73;96214.03;5049944;28;20563;-72
2023/06/03 02:03:55;;;;;;;18.38;5.70;;;;;;;14.53;60.76;96204.22;5050098;28;20056;-72
2023/06/03 02:06:22;;;;;;;35.78;6.15;;;;;;;14.48;60.82;96209.94;5049563;28;20419;-73
2023/06/03 02:08:48;;;;;;;30.88;5.25;;;;;;;14.42;60.68;96203.88;5049363;28;20072;-72
2023/06/03 02:11:15;;;;;;;31.05;5.90;;;;;;;14.41;60.47;96210.50;5049042;28;20048;-72
2023/06/03 02:13:41;;;;;;;17.73;5.57;;;;;;;14.32;60.77;96210.63;5049698;28;20048;-72
2023/06/03 02:16:10;;;;;;;39.00;7.00;;;;;;;14.32;61.44;96213.38;5046589;28;20406;-72
2023/06/03 02:18:37;;;;;;;13.38;5.03;;;;;;;14.30;61.06;96207.47;5050244;28;20048;-72
2023/06/03 02:21:04;;;;;;;28.65;5.97;;;;;;;14.27;60.68;96202.66;5049046;28;20053;-72
2023/06/03 02:23:30;;;;;;;30.50;5.47;;;;;;;14.26;60.98;96212.03;5050691;28;20041;-72
2023/06/03 02:25:57;;;;;;;33.20;6.75;;;;;;;14.22;60.46;96213.06;5049359;28;20045;-72
2023/06/03 02:28:24;;;;;;;12.27;4.82;;;;;;;14.20;60.66;96209.84;5049129;28;20079;-72
2023/06/03 02:30:51;;;;;;;31.58;6.03;;;;;;;14.20;61.86;96201.63;5048489;28;20045;-72
2023/06/03 02:33:18;;;;;;;33.97;6.30;;;;;;;14.14;61.62;96209.28;5046605;28;20052;-72
2023/06/03 02:35:45;;;;;;;27.30;5.18;;;;;;;14.11;61.48;96210.00;5049924;28;20052;-72
2023/06/03 02:38:11;;;;;;;37.42;5.57;;;;;;;14.09;61.52;96213.09;5048289;28;20056;-72
2023/06/03 02:40:38;;;;;;;18.65;4.47;;;;;;;14.07;61.97;96217.28;5049096;28;20044;-72
2023/06/03 02:43:04;;;;;;;17.48;5.68;;;;;;;14.10;62.28;96213.88;5048564;28;20041;-72
2023/06/03 02:45:31;;;;;;;28.63;5.20;;;;;;;14.10;62.75;96208.41;5049345;28;20045;-72
2023/06/03 02:47:58;;;;;;;21.40;4.68;;;;;;;14.08;62.00;96205.97;5048824;28;20045;-72
2023/06/03 02:50:26;;;;;;;28.88;6.05;;;;;;;14.07;61.81;96209.88;5048523;28;20052;-72
2023/06/03 02:52:52;;;;;;;14.73;5.25;;;;;;;14.03;61.10;96210.91;5048838;28;20041;-72
2023/06/03 02:55:19;;;;;;;29.95;5.88;;;;;;;14.04;62.40;96204.28;5049713;28;20045;-73
2023/06/03 02:57:45;;;;;;;16.75;5.03;;;;;;;14.04;61.81;96209.75;5050180;28;20056;-72
2023/06/03 03:00:13;;;;;;;17.73;4.65;;;;;;;14.05;62.32;96208.63;5051658;28;20050;-72
2023/06/03 03:02:39;;;;;;;25.13;4.78;;;;;;;14.01;62.12;96210.44;5049888;28;20098;-72
2023/06/03 03:05:06;;;;;;;35.53;5.97;;;;;;;13.99;61.70;96212.72;5048093;28;20052;-73
2023/06/03 03:07:36;;;;;;;54.78;6.57;;;;;;;13.98;61.41;96216.59;5049052;28;20045;-72
2023/06/03 03:10:04;;;;;;;27.02;5.43;;;;;;;13.91;61.39;96210.91;5048116;28;20095;-72
2023/06/03 03:12:30;;;;;;;12.07;4.68;;;;;;;13.89;61.33;96213.22;5048872;28;20037;-72
2023/06/03 03:14:57;;;;;;;16.70;4.88;;;;;;;13.86;61.37;96213.88;5048459;28;20064;-72
2023/06/03 03:17:23;;;;;;;9.63;4.70;;;;;;;13.84;61.63;96223.22;5047706;28;20592;-72
2023/06/03 03:19:50;;;;;;;8.82;4.65;;;;;;;13.83;61.98;96216.16;5048246;28;20057;-72
2023/06/03 03:22:16;;;;;;;32.63;5.30;;;;;;;13.83;62.41;96218.91;5047891;28;20566;-72
2023/06/03 03:24:44;;;;;;;48.40;6.07;;;;;;;13.79;62.70;96220.72;5048424;28;20056;-72
2023/06/03 03:27:11;;;;;;;26.50;5.32;;;;;;;13.73;62.14;96219.34;5047895;28;20057;-72
2023/06/03 03:29:38;;;;;;;34.47;5.45;;;;;;;13.73;62.77;96222.09;5047327;28;20044;-72
2023/06/03 03:32:07;;;;;;;27.65;5.60;;;;;;;13.71;62.52;96229.81;5047558;28;20128;-72
2023/06/03 03:34:36;;;;;;;24.88;5.45;;;;;;;13.70;62.24;96228.22;5048366;28;20041;-72
2023/06/03 03:37:03;;;;;;;10.63;3.92;;;;;;;13.69;63.16;96226.66;5044181;28;20077;-73
2023/06/03 03:39:30;;;;;;;5.93;3.65;;;;;;;13.69;63.21;96226.66;5049161;28;20053;-72
2023/06/03 03:41:58;;;;;;;9.52;4.43;;;;;;;13.73;64.04;96227.56;5047767;28;20052;-72
2023/06/03 03:44:28;;;;;;;8.07;4.00;;;;;;;13.77;62.75;96233.94;5047595;28;20052;-72
2023/06/03 03:47:00;;;;;;;20.88;4.65;;;;;;;13.76;63.08;96226.88;5046974;28;20044;-72
2023/06/03 03:49:29;;;;;;;28.77;4.90;;;;;;;13.74;62.99;96234.63;5048253;28;20634;-72
2023/06/03 03:51:57;;;;;;;15.20;4.78;;;;;;;13.74;62.97;96242.84;5048375;28;20068;-72
2023/06/03 03:54:23;;;;;;;22.02;5.30;;;;;;;13.74;63.52;96240.09;5046014;28;20048;-72
2023/06/03 03:56:54;;;;;;;8.27;3.63;;;;;;;13.77;63.51;96244.88;5046768;28;20496;-72
2023/06/03 03:59:22;;;;;;;10.45;4.07;;;;;;;13.80;63.59;96241.47;5046694;28;20052;-72
2023/06/03 04:01:49;;;;;;;7.90;3.70;;;;;;;13.83;63.80;96243.53;5047942;28;20041;-72
2023/06/03 04:04:35;;;;;;;9.23;3.83;;;;;;;13.86;63.82;96252.19;5047351;28;20051;-72
2023/06/03 04:07:02;;;;;;;6.45;3.22;;;;;;;13.89;64.17;96251.53;5043348;28;20448;-73
2023/06/03 04:09:28;;;;;;;7.63;3.80;;;;;;;13.90;64.54;96247.66;5047493;28;20503;-73
2023/06/03 04:11:55;;;;;;;11.68;4.28;;;;;;;13.91;64.57;96251.97;5047913;28;20040;-72
2023/06/03 04:14:44;;;;;;;9.65;4.53;;;;;;;13.97;64.12;96253.34;5046255;28;20052;-72
2023/06/03 04:17:12;;;;;;;12.10;4.35;;;;;;;13.94;62.87;96256.75;5043930;28;20396;-73
2023/06/03 04:19:41;;;;;;;10.57;4.45;;;;;;;13.74;63.38;96263.94;5046979;28;20166;-72
2023/06/03 04:22:09;;;;;;;11.02;4.60;;;;;;;13.68;63.79;96257.09;5047150;28;20047;-72
2023/06/03 04:24:37;;;;;;;12.40;4.47;;;;;;;13.86;63.35;96263.16;5046645;28;20051;-72
2023/06/03 04:27:08;;;;;;;9.70;4.40;;;;;;;13.90;63.64;96258.59;5047280;28;20040;-73
2023/06/03 04:29:36;;;;;;;7.75;4.05;;;;;;;13.95;64.05;96258.38;5040058;28;20087;-72
2023/06/03 04:32:03;;;;;;;8.05;4.55;;;;;;;13.97;63.42;96265.09;5046684;28;20048;-73
2023/06/03 04:34:30;;;;;;;11.55;5.40;;;;;;;14.03;63.41;96257.44;5046779;28;20052;-72
2023/06/03 04:36:57;;;;;;;13.30;4.55;;;;;;;13.94;63.51;96264.97;5048613;28;20049;-72
2023/06/03 04:39:24;;;;;;;6.20;4.00;;;;;;;14.05;63.32;96269.66;5046975;28;20041;-72
2023/06/03 04:41:51;;;;;;;10.43;4.80;;;;;;;13.96;63.40;96262.69;5046230;28;20061;-72
2023/06/03 04:44:18;;;;;;;11.30;4.78;;;;;;;13.79;63.32;96270.00;5047322;28;20385;-72
2023/06/03 04:46:50;;;;;;;9.32;4.72;;;;;;;13.90;63.63;96264.06;5047092;28;20048;-72
2023/06/03 04:49:16;;;;;;;9.15;4.65;;;;;;;13.84;62.99;96260.75;5047974;28;20043;-72
2023/06/03 04:51:44;;;;;;;10.48;5.25;;;;;;;13.90;63.61;96261.31;5046707;28;20144;-72
2023/06/03 04:54:10;;;;;;;13.05;5.18;;;;;;;13.82;63.95;96258.34;5046082;28;20626;-72
2023/06/03 04:56:37;;;;;;;14.98;4.80;;;;;;;13.83;63.76;96262.69;5050340;28;20124;-72
2023/06/03 04:59:04;;;;;;;9.07;5.07;;;;;;;13.86;64.68;96269.41;5050919;28;20056;-73
2023/06/03 05:01:32;;;;;;;12.10;5.22;;;;;;;13.70;64.85;96269.28;5051218;28;20107;-72
2023/06/03 05:04:02;;;;;;;11.98;5.38;;;;;;;13.80;64.51;96263.38;5051457;28;20118;-72
2023/06/03 05:06:28;;;;;;;9.68;4.90;;;;;;;13.82;63.81;96255.59;5049717;28;20060;-72
2023/06/03 05:08:55;;;;;;;8.27;4.72;;;;;;;13.91;63.94;96268.41;5051784;28;20045;-72
2023/06/03 05:11:22;;;;;;;9.57;4.70;;;;;;;14.07;63.81;96264.63;5050657;28;20049;-72
2023/06/03 05:13:48;;;;;;;8.30;4.70;;;;;;;14.09;64.71;96264.28;5051695;28;20053;-73
2023/06/03 05:16:15;;;;;;;10.23;5.10;;;;;;;14.16;64.27;96259.03;5050833;28;20049;-72
2023/06/03 05:18:42;;;;;;;11.07;5.38;;;;;;;14.25;64.64;96259.72;5052079;28;20049;-72
2023/06/03 05:21:10;;;;;;;9.07;4.45;;;;;;;14.36;63.65;96258.13;5050750;28;20049;-73
2023/06/03 05:23:37;;;;;;;10.95;5.18;;;;;;;14.05;63.14;96255.19;5050626;28;20041;-72
2023/06/03 05:26:05;;;;;;;12.23;5.88;;;;;;;14.02;63.17;96258.59;5049610;28;20041;-73
2023/06/03 05:28:32;;;;;;;11.43;4.85;;;;;;;13.81;63.53;96256.75;5050914;28;20051;-72
2023/06/03 05:30:58;;;;;;;7.35;4.63;;;;;;;14.00;63.43;96258.94;5045994;28;20049;-73
2023/06/03 05:33:26;;;;;;;9.88;5.57;;;;;;;13.94;64.06;96251.28;5049924;28;20052;-71
2023/06/03 05:35:53;;;;;;;11.35;5.82;;;;;;;13.82;64.01;96257.53;5041561;28;20049;-73
2023/06/03 05:38:21;;;;;;;12.10;5.65;;;;;;;13.99;64.21;96262.00;5048001;28;20048;-74
2023/06/03 05:40:48;;;;;;;9.90;5.07;;;;;;;13.98;63.62;96254.94;5048647;28;20053;-73
2023/06/03 05:43:15;;;;;;;8.27;5.18;;;;;;;14.01;63.11;96260.53;5048004;28;20049;-74
2023/06/03 05:45:41;;;;;;;10.73;5.07;;;;;;;13.99;63.57;96256.53;5049013;28;20139;-73
2023/06/03 05:48:08;;;;;;;9.82;4.95;;;;;;;13.88;63.46;96271.81;5048016;28;20063;-73
2023/06/03 05:50:37;;;;;;;6.78;4.88;;;;;;;13.96;63.35;96259.97;5048653;28;20122;-73
2023/06/03 05:53:04;;;;;;;10.43;5.43;;;;;;;14.12;64.24;96258.13;5047844;28;20056;-73
2023/06/03 05:55:33;;;;;;;11.48;5.18;;;;;;;14.29;62.93;96268.84;5047492;28;20049;-74
2023/06/03 05:57:59;;;;;;;7.90;4.82;;;;;;;14.48;63.61;96268.28;5046958;28;20048;-75
2023/06/03 06:00:27;;;;;;;8.25;4.68;;;;;;;14.43;61.85;96270.44;5047840;28;20044;-74
2023/06/03 06:02:54;;;;;;;16.17;5.60;;;;;;;14.35;62.54;96272.97;5048026;28;20412;-74
2023/06/03 06:05:21;;;;;;;8.93;4.65;;;;;;;14.49;62.60;96258.91;5047789;28;20539;-74
2023/06/03 06:07:47;;;;;;;9.88;4.75;;;;;;;14.58;61.84;96258.78;5047947;28;20053;-74
2023/06/03 06:10:14;;;;;;;16.08;9.95;;;;;;;14.57;61.41;96265.44;5046900;28;20048;-74
2023/06/03 06:12:41;;;;;;;15.27;7.20;;;;;;;14.63;61.30;96264.03;5047850;28;20041;-74
2023/06/03 06:15:09;;;;;;;12.48;7.20;;;;;;;14.76;61.44;96273.00;5047070;28;20551;-74
2023/06/03 06:17:37;;;;;;;12.40;7.65;;;;;;;14.75;61.18;96277.69;5048207;28;20059;-73
2023/06/03 06:20:04;;;;;;;12.65;6.90;;;;;;;14.78;60.67;96268.78;5047749;28;20462;-74
2023/06/03 06:22:31;;;;;;;10.65;5.40;;;;;;;14.77;60.38;96264.47;5048550;28;20044;-73
2023/06/03 06:24:58;;;;;;;11.82;7.35;;;;;;;14.89;60.84;96277.31;5047476;28;20138;-73
2023/06/03 06:27:25;;;;;;;11.07;6.68;;;;;;;15.00;60.01;96272.16;5047230;28;20047;-74
2023/06/03 06:29:53;;;;;;;8.55;5.00;;;;;;;15.07;59.69;96277.81;5048237;28;20056;-74
2023/06/03 06:32:24;;;;;;;12.05;4.85;;;;;;;15.12;59.67;96275.63;5047131;28;20045;-74
2023/06/03 06:34:50;;;;;;;8.75;4.80;;;;;;;15.17;60.09;96285.56;5047596;28;20056;-74
2023/06/03 06:37:18;;;;;;;9.48;4.38;;;;;;;15.33;60.53;96285.59;5046930;28;20045;-74
2023/06/03 06:39:48;;;;;;;8.65;4.82;;;;;;;15.21;59.34;96283.72;5047976;28;20056;-74
2023/06/03 06:42:24;;;;;;;9.77;4.93;;;;;;;15.23;58.81;96292.38;5047130;28;20373;-74
2023/06/03 06:44:51;;;;;;;7.75;4.65;;;;;;;15.37;58.99;96292.78;5040946;28;20052;-75
2023/06/03 06:47:22;;;;;;;9.73;4.93;;;;;;;15.53;60.01;96281.06;5046866;28;20055;-75
2023/06/03 06:49:49;;;;;;;10.43;4.88;;;;;;;15.61;59.02;96288.34;5047615;28;20052;-74
2023/06/03 06:52:16;;;;;;;7.55;4.55;;;;;;;15.74;58.85;96284.38;5047355;28;20510;-75
2023/06/03 06:54:43;;;;;;;10.73;4.63;;;;;;;15.83;58.33;96285.03;5046875;28;20586;-74
2023/06/03 06:57:10;;;;;;;9.75;4.20;;;;;;;15.70;57.89;96280.75;5046882;28;20048;-75
2023/06/03 06:59:36;;;;;;;11.05;4.53;;;;;;;15.90;58.86;96278.91;5047532;28;20040;-75
2023/06/03 07:02:03;;;;;;;11.00;5.45;;;;;;;16.03;58.28;96279.63;5047307;28;20779;-75
2023/06/03 07:04:31;;;;;;;9.35;5.15;;;;;;;16.19;58.02;96283.16;5046670;28;20478;-75
2023/06/03 07:06:57;;;;;;;6.05;4.10;;;;;;;16.19;57.25;96283.16;5047204;28;20091;-76
2023/06/03 07:09:24;;;;;;;10.55;5.15;;;;;;;16.13;56.94;96287.31;5045580;28;20415;-74
2023/06/03 07:11:50;;;;;;;11.07;4.70;;;;;;;16.07;57.06;96285.97;5046715;28;20059;-74
2023/06/03 07:14:17;;;;;;;8.60;4.72;;;;;;;16.13;57.60;96290.06;5046791;28;20040;-74
2023/06/03 07:16:44;;;;;;;8.02;4.40;;;;;;;16.28;57.39;96286.50;5037184;28;20063;-75
2023/06/03 07:19:10;;;;;;;7.85;4.70;;;;;;;16.42;57.98;96284.09;5029280;28;20048;-75
2023/06/03 07:21:38;;;;;;;11.52;4.63;;;;;;;16.40;56.90;96283.66;5047183;28;20056;-74
2023/06/03 07:24:07;;;;;;;10.30;5.03;;;;;;;16.39;56.84;96289.50;5046064;28;20037;-74
2023/06/03 07:26:34;;;;;;;9.63;4.50;;;;;;;16.37;57.17;96289.84;5046990;28;20490;-73
2023/06/03 07:29:01;;;;;;;8.65;4.50;;;;;;;16.60;57.40;96286.44;5046065;28;20064;-73
2023/06/03 07:31:30;;;;;;;10.80;5.00;;;;;;;16.74;57.38;96286.00;5045401;28;20037;-72
2023/06/03 07:33:57;;;;;;;7.78;4.57;;;;;;;16.94;57.10;96296.66;5046801;28;20718;-71
2023/06/03 07:36:26;;;;;;;7.00;4.18;;;;;;;16.99;55.65;96292.06;5046127;28;20043;-72
2023/06/03 07:39:05;;;;;;;9.13;4.72;;;;;;;17.15;55.61;96295.53;5046885;28;20143;-72
2023/06/03 07:41:40;;;;;;;8.07;4.55;;;;;;;17.27;54.80;96303.63;5046507;28;20072;-72
2023/06/03 07:44:08;;;;;;;13.18;5.20;;;;;;;17.31;54.55;96312.75;5039734;28;20077;-72
2023/06/03 07:46:41;;;;;;;13.65;5.60;;;;;;;17.46;54.22;96311.88;5046198;28;20053;-72
2023/06/03 07:49:10;;;;;;;8.48;4.68;;;;;;;17.62;55.71;96306.28;5042081;28;20048;-74
2023/06/03 07:51:40;;;;;;;9.43;4.88;;;;;;;17.50;54.45;96311.16;5046616;28;20091;-72
2023/06/03 07:54:08;;;;;;;12.57;4.65;;;;;;;17.64;54.32;96311.41;5045072;28;20044;-72
2023/06/03 07:56:35;;;;;;;7.78;4.38;;;;;;;17.87;54.63;96304.03;5046384;28;20051;-72
2023/06/03 07:59:04;;;;;;;7.55;4.40;;;;;;;17.83;53.87;96308.66;5046189;28;20094;-76
2023/06/03 08:01:30;;;;;;;8.65;4.18;;;;;;;17.90;53.38;96305.25;5044355;28;20052;-72
2023/06/03 08:03:57;;;;;;;9.65;4.40;;;;;;;17.92;53.20;96311.19;5044197;28;20883;-72
2023/06/03 08:06:27;;;;;;;8.35;4.47;;;;;;;18.13;53.08;96310.78;5043273;28;20064;-72
2023/06/03 08:08:56;;;;;;;9.02;4.13;;;;;;;17.92;52.86;96311.19;5046826;28;20044;-73
2023/06/03 08:11:25;;;;;;;8.57;4.90;;;;;;;17.95;52.92;96311.25;5035542;28;20041;-72
2023/06/03 08:13:54;;;;;;;11.68;4.90;;;;;;;18.31;53.15;96306.34;5039748;28;20053;-73
2023/06/03 08:16:21;;;;;;;7.97;4.03;;;;;;;18.59;51.65;96307.97;5049749;28;20515;-72
2023/06/03 08:18:50;;;;;;;7.07;4.47;;;;;;;18.59;52.46;96316.25;5042720;28;20102;-73
2023/06/03 08:21:18;;;;;;;13.77;4.57;;;;;;;18.91;50.83;96311.22;5047392;28;20049;-72
2023/06/03 08:23:44;;;;;;;8.02;4.28;;;;;;;18.94;50.31;96308.50;5049967;28;20056;-73
2023/06/03 08:26:11;;;;;;;7.43;3.83;;;;;;;19.10;49.66;96307.53;5049735;28;20056;-73
2023/06/03 08:28:39;;;;;;;6.97;4.22;;;;;;;19.46;52.15;96312.31;5051077;28;20048;-72
2023/06/03 08:31:06;;;;;;;10.50;4.35;;;;;;;19.52;49.38;96313.59;5053771;28;20053;-72
2023/06/03 08:33:33;;;;;;;10.80;4.00;;;;;;;19.83;48.77;96317.09;5054582;28;20045;-72
2023/06/03 08:36:00;;;;;;;8.20;4.43;;;;;;;19.79;47.78;96319.84;5051099;28;20478;-71
2023/06/03 08:38:26;;;;;;;8.60;4.15;;;;;;;20.04;48.78;96317.31;5057818;28;20049;-73
2023/06/03 08:40:53;;;;;;;12.25;3.80;;;;;;;19.91;47.78;96313.25;5057563;28;20408;-73
2023/06/03 08:43:22;;;;;;;8.25;4.00;;;;;;;20.06;47.10;96312.19;5049850;28;20060;-72
2023/06/03 08:45:56;;;;;;;6.38;3.78;;;;;;;19.86;47.53;96310.81;5053258;28;20140;-73
2023/06/03 08:48:32;;;;;;;9.68;3.75;;;;;;;20.21;48.06;96317.88;5056479;28;20051;-72
2023/06/03 08:51:04;;;;;;;10.38;4.43;;;;;;;20.29;49.25;96308.44;5056119;28;20053;-72
2023/06/03 08:53:35;;;;;;;7.45;3.75;;;;;;;20.34;47.86;96308.09;5054461;28;20488;-73
2023/06/03 08:56:02;;;;;;;7.05;3.80;;;;;;;20.36;46.78;96310.47;5055030;28;20059;-76
2023/06/03 08:58:36;;;;;;;9.52;3.67;;;;;;;20.23;46.44;96307.22;5056552;28;20041;-73
2023/06/03 09:01:04;;;;;;;8.32;3.90;;;;;;;20.38;46.03;96313.66;5054244;28;20048;-72
2023/06/03 09:03:32;;;;;;;10.45;4.35;;;;;;;20.54;46.68;96301.19;5051975;28;20411;-72
2023/06/03 09:06:00;;;;;;;14.18;4.45;;;;;;;20.66;46.84;96313.91;5050759;28;20044;-72
2023/06/03 09:08:28;;;;;;;8.05;4.20;;;;;;;20.66;45.95;96308.38;5051288;28;20455;-73
2023/06/03 09:10:56;;;;;;;8.70;4.43;;;;;;;20.34;45.86;96313.63;5051508;28;20045;-72
2023/06/03 09:13:23;;;;;;;7.15;3.60;;;;;;;20.80;47.34;96310.44;5050530;28;20037;-73
2023/06/03 09:15:51;;;;;;;10.95;3.70;;;;;;;21.00;46.08;96311.75;5051519;28;20048;-72
2023/06/03 09:18:19;;;;;;;12.40;3.90;;;;;;;21.18;46.72;96311.06;5044161;28;20511;-73
2023/06/03 09:20:45;;;;;;;9.90;4.82;;;;;;;21.28;45.70;96304.78;5049633;28;20577;-73
2023/06/03 09:23:13;;;;;;;11.15;3.83;;;;;;;21.49;47.93;96298.56;5049147;28;20755;-73
2023/06/03 09:25:40;;;;;;;7.65;4.03;;;;;;;21.42;45.90;96304.88;5046556;28;20041;-75
2023/06/03 09:28:06;;;;;;;7.68;4.20;;;;;;;21.57;47.96;96305.72;5047302;28;20045;-73
2023/06/03 09:30:35;;;;;;;5.53;3.80;;;;;;;21.53;45.11;96299.38;5047281;28;20051;-73
2023/06/03 09:33:02;;;;;;;10.23;4.60;;;;;;;21.43;46.78;96303.69;5048202;28;20068;-73
2023/06/03 09:35:31;;;;;;;7.05;3.80;;;;;;;21.59;46.55;96309.69;5043762;28;20049;-73
2023/06/03 09:38:00;;;;;;;8.20;4.03;;;;;;;21.78;45.08;96305.00;5048715;28;20045;-73
2023/06/03 09:40:28;;;;;;;8.45;3.75;;;;;;;21.78;43.97;96294.69;5047275;28;20052;-73
2023/06/03 09:42:54;;;;;;;7.03;3.95;;;;;;;21.79;44.95;96301.03;5048017;28;20053;-73
2023/06/03 09:45:29;;;;;;;9.05;4.47;;;;;;;21.69;45.36;96299.03;5047152;28;20044;-73
2023/06/03 09:47:56;;;;;;;12.05;5.05;;;;;;;21.48;45.26;96308.84;5047190;28;20048;-73
2023/06/03 09:50:24;;;;;;;8.43;4.60;;;;;;;21.70;45.57;96303.38;5046556;28;20049;-73
2023/06/03 09:52:52;;;;;;;7.78;3.97;;;;;;;21.90;44.27;96301.84;5047466;28;20587;-73
2023/06/03 09:55:19;;;;;;;9.73;3.65;;;;;;;22.03;45.65;96300.28;5046820;28;20055;-73
2023/06/03 09:58:04;;;;;;;10.38;3.88;;;;;;;22.03;44.62;96308.63;5047037;28;20053;-73
2023/06/03 10:00:32;;;;;;;15.77;5.35;;;;;;;21.83;43.88;96307.38;5045583;28;20411;-73
2023/06/03 10:03:19;;;;;;;28.00;6.22;;;;;;;22.09;44.04;96304.25;5046949;28;20057;-73
2023/06/03 10:05:46;;;;;;;18.73;5.25;;;;;;;22.08;43.59;96318.50;5049918;28;20068;-73
2023/06/03 10:08:14;;;;;;;8.00;4.25;;;;;;;21.79;44.00;96317.66;5046118;28;20048;-73
2023/06/03 10:10:56;;;;;;;7.10;4.30;;;;;;;22.05;44.56;96316.53;5051794;28;20113;-73
2023/06/03 10:13:24;;;;;;;11.55;4.22;;;;;;;22.09;43.69;96312.56;5053108;28;20107;-73
2023/06/03 10:15:52;;;;;;;22.05;5.32;;;;;;;21.93;42.67;96312.16;5051998;28;20056;-73
2023/06/03 10:18:34;;;;;;;30.98;6.18;;;;;;;21.77;44.92;96311.69;5049030;28;20048;-73
2023/06/03 10:21:08;;;;;;;6.87;4.20;;;;;;;21.77;43.41;96304.19;5050464;28;20139;-73
2023/06/03 10:23:39;;;;;;;6.88;3.83;;;;;;;21.52;43.71;96304.13;5051233;28;20286;-73
2023/06/03 10:26:06;;;;;;;11.15;4.65;;;;;;;21.87;45.92;96305.38;5049655;28;20072;-73
2023/06/03 10:28:33;;;;;;;8.00;3.58;;;;;;;22.04;44.15;96301.88;5050153;28;20068;-73
2023/06/03 10:31:01;;;;;;;4.25;3.40;;;;;;;22.11;43.49;96301.13;5048268;28;20045;-73
2023/06/03 10:33:28;;;;;;;5.97;3.75;;;;;;;22.42;45.93;96293.22;5048977;28;20045;-73
2023/06/03 10:35:57;;;;;;;7.25;4.10;;;;;;;22.40;43.66;96290.84;5048156;28;20049;-73
2023/06/03 10:38:24;;;;;;;8.88;3.97;;;;;;;22.24;43.60;96299.56;5050459;28;20064;-74
2023/06/03 10:40:54;;;;;;;8.13;4.05;;;;;;;22.54;44.41;96293.59;5054703;28;20120;-73
2023/06/03 10:43:21;;;;;;;6.78;4.22;;;;;;;22.71;45.29;96285.63;5056628;28;20048;-73
2023/06/03 10:45:52;;;;;;;8.20;4.18;;;;;;;22.37;42.96;96281.31;5057323;28;20052;-73
2023/06/03 10:48:22;;;;;;;10.60;4.30;;;;;;;22.50;43.47;96284.50;5053534;28;20056;-73
2023/06/03 10:51:01;;;;;;;7.53;3.83;;;;;;;22.75;43.92;96283.66;5053141;28;20045;-73
2023/06/03 10:53:42;;;;;;;8.40;3.80;;;;;;;22.63;42.95;96288.44;5050792;28;20658;-73
2023/06/03 10:56:21;;;;;;;7.63;3.80;;;;;;;22.41;42.39;96275.78;5043334;28;20048;-73
2023/06/03 10:58:58;;;;;;;8.57;3.80;;;;;;;22.51;42.89;96274.97;5063766;28;20076;-73
2023/06/03 11:01:55;;;;;;;8.45;4.40;;;;;;;22.31;41.69;96285.69;5051457;28;20049;-74
2023/06/03 11:04:22;;;;;;;6.35;3.78;;;;;;;22.41;41.72;96286.88;5043096;28;20075;-72
2023/06/03 11:06:48;;;;;;;7.47;4.15;;;;;;;22.14;41.84;96284.50;5053378;28;20063;-74
2023/06/03 11:09:17;;;;;;;8.98;4.25;;;;;;;22.26;41.49;96279.75;5053382;28;20049;-72
2023/06/03 11:12:07;;;;;;;9.50;3.35;;;;;;;22.49;42.60;96279.31;5052721;28;20063;-73
2023/06/03 11:14:53;;;;;;;9.70;4.25;;;;;;;22.64;44.49;96275.34;5053788;28;20119;-73
2023/06/03 11:17:20;;;;;;;8.30;4.00;;;;;;;22.64;41.80;96278.13;5054012;28;20156;-73
2023/06/03 11:19:51;;;;;;;11.30;3.92;;;;;;;22.74;41.39;96270.97;5048318;28;20053;-72
2023/06/03 11:22:54;;;;;;;8.25;3.80;;;;;;;22.63;40.93;96282.09;5048007;28;20048;-72
2023/06/03 11:25:31;;;;;;;6.05;3.95;;;;;;;22.68;42.41;96281.69;5034319;28;20045;-72
2023/06/03 11:28:35;;;;;;;9.32;4.18;;;;;;;22.76;42.41;96274.13;5039088;28;20040;-73
2023/06/03 11:31:05;;;;;;;8.35;3.92;;;;;;;22.77;40.78;96278.50;5046431;28;20102;-73
2023/06/03 11:33:32;;;;;;;8.57;4.47;;;;;;;22.51;42.13;96274.97;5046578;28;20119;-73
2023/06/03 11:35:58;;;;;;;11.90;3.92;;;;;;;22.65;44.25;96268.59;5046884;28;20044;-72